sensor_id;sensor_type;location;lat;lon;timestamp;temperature;humidity
24560;DHT22;12727;49.934;8.656;2024-02-21T00:00:52;8.40;99.90
24560;DHT22;12727;49.934;8.656;2024-02-21T00:03:18;8.50;99.90
24560;DHT22;12727;49.934;8.656;2024-02-21T00:05:44;8.40;99.90
24560;DHT22;12727;49.934;8.656;2024-02-21T00:08:11;8.50;99.90
24560;DHT22;12727;49.934;8.656;2024-02-21T00:10:36;8.40;99.90
24560;DHT22;12727;49.934;8.656;2024-02-21T00:13:02;8.40;99.90
24560;DHT22;12727;49.934;8.656;2024-02-21T00:15:28;8.50;99.90
24560;DHT22;12727;49.934;8.656;2024-02-21T00:17:54;8.40;99.90
24560;DHT22;12727;49.934;8.656;2024-02-21T00:20:19;8.50;99.90
24560;DHT22;12727;49.934;8.656;2024-02-21T00:22:45;8.60;99.90
24560;DHT22;12727;49.934;8.656;2024-02-21T00:25:11;8.50;99.90
24560;DHT22;12727;49.934;8.656;2024-02-21T00:27:37;8.40;99.90
24560;DHT22;12727;49.934;8.656;2024-02-21T00:30:03;8.40;99.90
24560;DHT22;12727;49.934;8.656;2024-02-21T00:32:29;8.50;99.90
24560;DHT22;12727;49.934;8.656;2024-02-21T00:34:54;8.30;99.90
24560;DHT22;12727;49.934;8.656;2024-02-21T00:37:20;8.40;99.90
24560;DHT22;12727;49.934;8.656;2024-02-21T00:39:46;8.50;99.90
24560;DHT22;12727;49.934;8.656;2024-02-21T00:42:11;8.30;99.90
24560;DHT22;12727;49.934;8.656;2024-02-21T00:44:37;8.20;99.90
24560;DHT22;12727;49.934;8.656;2024-02-21T00:47:02;8.30;99.90
24560;DHT22;12727;49.934;8.656;2024-02-21T00:49:28;8.30;99.90
24560;DHT22;12727;49.934;8.656;2024-02-21T00:51:54;8.30;99.90
24560;DHT22;12727;49.934;8.656;2024-02-21T00:54:19;8.40;99.90
24560;DHT22;12727;49.934;8.656;2024-02-21T00:56:45;8.40;99.90
24560;DHT22;12727;49.934;8.656;2024-02-21T00:59:10;8.30;99.90
24560;DHT22;12727;49.934;8.656;2024-02-21T01:01:36;8.30;99.90
24560;DHT22;12727;49.934;8.656;2024-02-21T01:04:01;8.30;99.90
24560;DHT22;12727;49.934;8.656;2024-02-21T01:06:27;8.30;99.90
24560;DHT22;12727;49.934;8.656;2024-02-21T01:08:52;8.30;99.90
24560;DHT22;12727;49.934;8.656;2024-02-21T01:11:18;8.30;99.90
24560;DHT22;12727;49.934;8.656;2024-02-21T01:13:44;8.20;99.90
24560;DHT22;12727;49.934;8.656;2024-02-21T01:16:10;8.20;99.90
24560;DHT22;12727;49.934;8.656;2024-02-21T01:18:37;8.10;99.90
24560;DHT22;12727;49.934;8.656;2024-02-21T01:21:04;8.20;99.90
24560;DHT22;12727;49.934;8.656;2024-02-21T01:23:36;8.20;99.90
24560;DHT22;12727;49.934;8.656;2024-02-21T01:26:02;8.20;99.90
24560;DHT22;12727;49.934;8.656;2024-02-21T01:28:28;8.20;99.90
24560;DHT22;12727;49.934;8.656;2024-02-21T01:30:54;8.00;99.90
24560;DHT22;12727;49.934;8.656;2024-02-21T01:33:19;8.00;99.90
24560;DHT22;12727;49.934;8.656;2024-02-21T01:35:45;8.10;99.90
24560;DHT22;12727;49.934;8.656;2024-02-21T01:38:12;8.10;99.90
24560;DHT22;12727;49.934;8.656;2024-02-21T01:40:38;8.10;99.90
24560;DHT22;12727;49.934;8.656;2024-02-21T01:43:14;8.00;99.90
24560;DHT22;12727;49.934;8.656;2024-02-21T01:45:40;8.10;99.90
24560;DHT22;12727;49.934;8.656;2024-02-21T01:48:06;8.00;99.90
24560;DHT22;12727;49.934;8.656;2024-02-21T01:50:32;8.00;99.90
24560;DHT22;12727;49.934;8.656;2024-02-21T01:52:58;8.10;99.90
24560;DHT22;12727;49.934;8.656;2024-02-21T01:55:24;8.10;99.90
24560;DHT22;12727;49.934;8.656;2024-02-21T01:57:50;8.10;99.90
24560;DHT22;12727;49.934;8.656;2024-02-21T02:00:16;8.10;99.90
24560;DHT22;12727;49.934;8.656;2024-02-21T02:02:42;7.90;99.90
24560;DHT22;12727;49.934;8.656;2024-02-21T02:05:09;7.80;99.90
24560;DHT22;12727;49.934;8.656;2024-02-21T02:07:35;7.90;99.90
24560;DHT22;12727;49.934;8.656;2024-02-21T02:10:00;7.90;99.90
24560;DHT22;12727;49.934;8.656;2024-02-21T02:12:26;7.90;99.90
24560;DHT22;12727;49.934;8.656;2024-02-21T02:15:02;7.90;99.90
24560;DHT22;12727;49.934;8.656;2024-02-21T02:17:31;7.90;99.90
24560;DHT22;12727;49.934;8.656;2024-02-21T02:19:57;7.90;99.90
24560;DHT22;12727;49.934;8.656;2024-02-21T02:22:28;8.00;99.90
24560;DHT22;12727;49.934;8.656;2024-02-21T02:24:54;8.00;99.90
24560;DHT22;12727;49.934;8.656;2024-02-21T02:27:20;7.80;99.90
24560;DHT22;12727;49.934;8.656;2024-02-21T02:29:45;7.80;99.90
24560;DHT22;12727;49.934;8.656;2024-02-21T02:32:11;7.70;99.90
24560;DHT22;12727;49.934;8.656;2024-02-21T02:34:37;7.80;99.90
24560;DHT22;12727;49.934;8.656;2024-02-21T02:37:03;7.80;99.90
24560;DHT22;12727;49.934;8.656;2024-02-21T02:39:28;7.80;99.90
24560;DHT22;12727;49.934;8.656;2024-02-21T02:41:54;7.80;99.90
24560;DHT22;12727;49.934;8.656;2024-02-21T02:44:19;7.90;99.90
24560;DHT22;12727;49.934;8.656;2024-02-21T02:46:45;7.90;99.90
24560;DHT22;12727;49.934;8.656;2024-02-21T02:49:11;7.80;99.90
24560;DHT22;12727;49.934;8.656;2024-02-21T02:51:36;7.70;99.90
24560;DHT22;12727;49.934;8.656;2024-02-21T02:54:02;7.60;99.90
24560;DHT22;12727;49.934;8.656;2024-02-21T02:56:28;7.60;99.90
24560;DHT22;12727;49.934;8.656;2024-02-21T02:58:54;7.60;99.90
24560;DHT22;12727;49.934;8.656;2024-02-21T03:01:20;7.60;99.90
24560;DHT22;12727;49.934;8.656;2024-02-21T03:03:45;7.60;99.90
24560;DHT22;12727;49.934;8.656;2024-02-21T03:06:12;7.70;99.90
24560;DHT22;12727;49.934;8.656;2024-02-21T03:08:38;7.70;99.90
24560;DHT22;12727;49.934;8.656;2024-02-21T03:11:05;7.70;99.90
24560;DHT22;12727;49.934;8.656;2024-02-21T03:13:30;7.70;99.90
24560;DHT22;12727;49.934;8.656;2024-02-21T03:15:56;7.60;99.90
24560;DHT22;12727;49.934;8.656;2024-02-21T03:18:22;7.50;99.90
24560;DHT22;12727;49.934;8.656;2024-02-21T03:20:47;7.40;99.90
24560;DHT22;12727;49.934;8.656;2024-02-21T03:23:13;7.30;99.90
24560;DHT22;12727;49.934;8.656;2024-02-21T03:25:39;7.30;99.90
24560;DHT22;12727;49.934;8.656;2024-02-21T03:28:04;7.40;99.90
24560;DHT22;12727;49.934;8.656;2024-02-21T03:30:30;7.40;99.90
24560;DHT22;12727;49.934;8.656;2024-02-21T03:32:56;7.40;99.90
24560;DHT22;12727;49.934;8.656;2024-02-21T03:35:21;7.40;99.90
24560;DHT22;12727;49.934;8.656;2024-02-21T03:37:47;7.30;99.90
24560;DHT22;12727;49.934;8.656;2024-02-21T03:40:12;7.30;99.90
24560;DHT22;12727;49.934;8.656;2024-02-21T03:42:38;7.30;99.90
24560;DHT22;12727;49.934;8.656;2024-02-21T03:45:04;7.30;99.90
24560;DHT22;12727;49.934;8.656;2024-02-21T03:47:30;7.30;99.90
24560;DHT22;12727;49.934;8.656;2024-02-21T03:49:55;7.40;99.90
24560;DHT22;12727;49.934;8.656;2024-02-21T03:52:21;7.30;99.90
24560;DHT22;12727;49.934;8.656;2024-02-21T03:54:47;7.10;99.90
24560;DHT22;12727;49.934;8.656;2024-02-21T03:57:12;7.00;99.90
24560;DHT22;12727;49.934;8.656;2024-02-21T03:59:38;7.00;99.90
24560;DHT22;12727;49.934;8.656;2024-02-21T04:02:05;7.00;99.90
24560;DHT22;12727;49.934;8.656;2024-02-21T04:04:37;7.00;99.90
24560;DHT22;12727;49.934;8.656;2024-02-21T04:10:24;7.10;99.90
24560;DHT22;12727;49.934;8.656;2024-02-21T04:12:50;7.20;99.90
24560;DHT22;12727;49.934;8.656;2024-02-21T04:15:19;7.20;99.90
24560;DHT22;12727;49.934;8.656;2024-02-21T04:17:44;7.40;99.90
24560;DHT22;12727;49.934;8.656;2024-02-21T04:20:15;7.40;99.90
24560;DHT22;12727;49.934;8.656;2024-02-21T04:22:42;7.40;99.90
24560;DHT22;12727;49.934;8.656;2024-02-21T04:25:08;7.30;99.90
24560;DHT22;12727;49.934;8.656;2024-02-21T04:27:34;7.20;99.90
24560;DHT22;12727;49.934;8.656;2024-02-21T04:29:59;7.20;99.90
24560;DHT22;12727;49.934;8.656;2024-02-21T04:32:25;7.10;99.90
24560;DHT22;12727;49.934;8.656;2024-02-21T04:34:53;7.10;99.90
24560;DHT22;12727;49.934;8.656;2024-02-21T04:37:18;7.10;99.90
24560;DHT22;12727;49.934;8.656;2024-02-21T04:39:44;7.00;99.90
24560;DHT22;12727;49.934;8.656;2024-02-21T04:42:10;6.90;99.90
24560;DHT22;12727;49.934;8.656;2024-02-21T04:44:36;6.90;99.90
24560;DHT22;12727;49.934;8.656;2024-02-21T04:47:02;6.90;99.90
24560;DHT22;12727;49.934;8.656;2024-02-21T04:49:29;6.90;99.90
24560;DHT22;12727;49.934;8.656;2024-02-21T04:51:55;6.90;99.90
24560;DHT22;12727;49.934;8.656;2024-02-21T04:54:20;6.90;99.90
24560;DHT22;12727;49.934;8.656;2024-02-21T04:56:46;6.90;99.90
24560;DHT22;12727;49.934;8.656;2024-02-21T04:59:11;6.90;99.90
24560;DHT22;12727;49.934;8.656;2024-02-21T05:01:37;7.00;99.90
24560;DHT22;12727;49.934;8.656;2024-02-21T05:04:02;7.00;99.90
24560;DHT22;12727;49.934;8.656;2024-02-21T05:06:28;6.90;99.90
24560;DHT22;12727;49.934;8.656;2024-02-21T05:08:54;6.70;99.90
24560;DHT22;12727;49.934;8.656;2024-02-21T05:11:21;6.70;99.90
24560;DHT22;12727;49.934;8.656;2024-02-21T05:13:47;6.80;99.90
24560;DHT22;12727;49.934;8.656;2024-02-21T05:16:13;6.60;99.90
24560;DHT22;12727;49.934;8.656;2024-02-21T05:18:39;6.60;99.90
24560;DHT22;12727;49.934;8.656;2024-02-21T05:21:05;6.60;99.90
24560;DHT22;12727;49.934;8.656;2024-02-21T05:23:31;6.50;99.90
24560;DHT22;12727;49.934;8.656;2024-02-21T05:25:56;6.50;99.90
24560;DHT22;12727;49.934;8.656;2024-02-21T05:28:22;6.50;99.90
24560;DHT22;12727;49.934;8.656;2024-02-21T05:30:47;6.50;99.90
24560;DHT22;12727;49.934;8.656;2024-02-21T05:33:13;6.50;99.90
24560;DHT22;12727;49.934;8.656;2024-02-21T05:35:46;6.50;99.90
24560;DHT22;12727;49.934;8.656;2024-02-21T05:38:12;6.50;99.90
24560;DHT22;12727;49.934;8.656;2024-02-21T05:40:37;6.50;99.90
24560;DHT22;12727;49.934;8.656;2024-02-21T05:43:03;6.60;99.90
24560;DHT22;12727;49.934;8.656;2024-02-21T05:45:29;6.70;99.90
24560;DHT22;12727;49.934;8.656;2024-02-21T05:47:54;6.80;99.90
24560;DHT22;12727;49.934;8.656;2024-02-21T05:50:20;6.80;99.90
24560;DHT22;12727;49.934;8.656;2024-02-21T05:52:46;6.90;99.90
24560;DHT22;12727;49.934;8.656;2024-02-21T05:55:12;6.90;99.90
24560;DHT22;12727;49.934;8.656;2024-02-21T05:57:38;6.90;99.90
24560;DHT22;12727;49.934;8.656;2024-02-21T06:00:05;6.90;99.90
24560;DHT22;12727;49.934;8.656;2024-02-21T06:02:31;7.00;99.90
24560;DHT22;12727;49.934;8.656;2024-02-21T06:04:56;6.90;99.90
24560;DHT22;12727;49.934;8.656;2024-02-21T06:07:22;7.00;99.90
24560;DHT22;12727;49.934;8.656;2024-02-21T06:09:47;7.00;99.90
24560;DHT22;12727;49.934;8.656;2024-02-21T06:12:13;7.00;99.90
24560;DHT22;12727;49.934;8.656;2024-02-21T06:14:38;7.00;99.90
24560;DHT22;12727;49.934;8.656;2024-02-21T06:17:04;7.00;99.90
24560;DHT22;12727;49.934;8.656;2024-02-21T06:19:30;7.00;99.90
24560;DHT22;12727;49.934;8.656;2024-02-21T06:21:55;7.00;99.90
24560;DHT22;12727;49.934;8.656;2024-02-21T06:24:21;7.00;99.90
24560;DHT22;12727;49.934;8.656;2024-02-21T06:26:47;7.10;99.90
24560;DHT22;12727;49.934;8.656;2024-02-21T06:29:12;7.00;99.90
24560;DHT22;12727;49.934;8.656;2024-02-21T06:31:40;7.10;99.90
24560;DHT22;12727;49.934;8.656;2024-02-21T06:34:06;7.00;99.90
24560;DHT22;12727;49.934;8.656;2024-02-21T06:36:31;7.00;99.90
24560;DHT22;12727;49.934;8.656;2024-02-21T06:38:58;7.00;99.90
24560;DHT22;12727;49.934;8.656;2024-02-21T06:41:23;6.90;99.90
24560;DHT22;12727;49.934;8.656;2024-02-21T06:43:49;7.00;99.90
24560;DHT22;12727;49.934;8.656;2024-02-21T06:46:28;7.00;99.90
24560;DHT22;12727;49.934;8.656;2024-02-21T06:48:59;7.00;99.90
24560;DHT22;12727;49.934;8.656;2024-02-21T06:51:25;7.00;99.90
24560;DHT22;12727;49.934;8.656;2024-02-21T06:53:51;7.00;99.90
24560;DHT22;12727;49.934;8.656;2024-02-21T06:56:17;7.00;99.90
24560;DHT22;12727;49.934;8.656;2024-02-21T06:58:43;6.90;99.90
24560;DHT22;12727;49.934;8.656;2024-02-21T07:01:09;6.90;99.90
24560;DHT22;12727;49.934;8.656;2024-02-21T07:03:35;6.90;99.90
24560;DHT22;12727;49.934;8.656;2024-02-21T07:06:01;6.90;99.90
24560;DHT22;12727;49.934;8.656;2024-02-21T07:08:27;6.90;99.90
24560;DHT22;12727;49.934;8.656;2024-02-21T07:10:53;7.00;99.90
24560;DHT22;12727;49.934;8.656;2024-02-21T07:13:19;7.10;99.90
24560;DHT22;12727;49.934;8.656;2024-02-21T07:15:45;7.20;99.90
24560;DHT22;12727;49.934;8.656;2024-02-21T07:18:11;7.30;99.90
24560;DHT22;12727;49.934;8.656;2024-02-21T07:20:37;7.40;99.90
24560;DHT22;12727;49.934;8.656;2024-02-21T07:23:03;7.60;99.90
24560;DHT22;12727;49.934;8.656;2024-02-21T07:25:29;7.70;99.90
24560;DHT22;12727;49.934;8.656;2024-02-21T07:27:55;7.90;99.90
24560;DHT22;12727;49.934;8.656;2024-02-21T07:30:21;8.10;99.90
24560;DHT22;12727;49.934;8.656;2024-02-21T07:32:49;8.30;99.90
24560;DHT22;12727;49.934;8.656;2024-02-21T07:35:15;8.50;99.90
24560;DHT22;12727;49.934;8.656;2024-02-21T07:37:41;8.50;99.90
24560;DHT22;12727;49.934;8.656;2024-02-21T07:40:12;8.50;99.90
24560;DHT22;12727;49.934;8.656;2024-02-21T07:42:37;8.50;99.90
24560;DHT22;12727;49.934;8.656;2024-02-21T07:45:03;8.50;99.90
24560;DHT22;12727;49.934;8.656;2024-02-21T07:47:29;8.60;99.90
24560;DHT22;12727;49.934;8.656;2024-02-21T07:49:54;8.70;99.90
24560;DHT22;12727;49.934;8.656;2024-02-21T07:52:20;8.80;99.90
24560;DHT22;12727;49.934;8.656;2024-02-21T07:54:46;8.90;99.90
24560;DHT22;12727;49.934;8.656;2024-02-21T07:57:11;9.00;99.90
24560;DHT22;12727;49.934;8.656;2024-02-21T07:59:37;9.20;99.90
24560;DHT22;12727;49.934;8.656;2024-02-21T08:02:02;9.20;99.90
24560;DHT22;12727;49.934;8.656;2024-02-21T08:04:32;9.30;99.90
24560;DHT22;12727;49.934;8.656;2024-02-21T08:06:57;9.30;99.90
24560;DHT22;12727;49.934;8.656;2024-02-21T08:09:27;9.30;99.90
24560;DHT22;12727;49.934;8.656;2024-02-21T08:11:53;9.20;99.90
24560;DHT22;12727;49.934;8.656;2024-02-21T08:14:19;9.10;99.90
24560;DHT22;12727;49.934;8.656;2024-02-21T08:16:44;8.90;99.90
24560;DHT22;12727;49.934;8.656;2024-02-21T08:19:10;8.90;99.90
24560;DHT22;12727;49.934;8.656;2024-02-21T08:21:36;8.90;99.90
24560;DHT22;12727;49.934;8.656;2024-02-21T08:24:02;8.80;99.90
24560;DHT22;12727;49.934;8.656;2024-02-21T08:26:28;8.80;99.90
24560;DHT22;12727;49.934;8.656;2024-02-21T08:28:56;8.70;99.90
24560;DHT22;12727;49.934;8.656;2024-02-21T08:31:24;8.60;99.90
24560;DHT22;12727;49.934;8.656;2024-02-21T08:33:54;8.60;99.90
24560;DHT22;12727;49.934;8.656;2024-02-21T08:36:19;8.60;99.90
24560;DHT22;12727;49.934;8.656;2024-02-21T08:38:46;8.70;99.90
24560;DHT22;12727;49.934;8.656;2024-02-21T08:41:11;8.70;99.90
24560;DHT22;12727;49.934;8.656;2024-02-21T08:43:37;8.60;99.90
24560;DHT22;12727;49.934;8.656;2024-02-21T08:46:05;8.60;99.90
24560;DHT22;12727;49.934;8.656;2024-02-21T08:48:30;8.70;99.90
24560;DHT22;12727;49.934;8.656;2024-02-21T08:50:56;8.70;99.90
24560;DHT22;12727;49.934;8.656;2024-02-21T08:53:21;8.70;99.90
24560;DHT22;12727;49.934;8.656;2024-02-21T08:55:47;8.80;99.90
24560;DHT22;12727;49.934;8.656;2024-02-21T08:58:13;8.90;99.90
24560;DHT22;12727;49.934;8.656;2024-02-21T09:00:40;9.10;99.90
24560;DHT22;12727;49.934;8.656;2024-02-21T09:03:05;9.50;99.90
24560;DHT22;12727;49.934;8.656;2024-02-21T09:05:31;9.60;99.90
24560;DHT22;12727;49.934;8.656;2024-02-21T09:07:56;9.60;99.90
24560;DHT22;12727;49.934;8.656;2024-02-21T09:10:22;9.60;99.90
24560;DHT22;12727;49.934;8.656;2024-02-21T09:12:48;9.70;99.90
24560;DHT22;12727;49.934;8.656;2024-02-21T09:15:13;10.10;99.90
24560;DHT22;12727;49.934;8.656;2024-02-21T09:17:39;10.50;99.90
24560;DHT22;12727;49.934;8.656;2024-02-21T09:20:05;10.70;99.90
24560;DHT22;12727;49.934;8.656;2024-02-21T09:22:32;10.30;99.90
24560;DHT22;12727;49.934;8.656;2024-02-21T09:25:00;9.90;99.90
24560;DHT22;12727;49.934;8.656;2024-02-21T09:27:26;9.60;99.90
24560;DHT22;12727;49.934;8.656;2024-02-21T09:29:51;9.40;99.90
24560;DHT22;12727;49.934;8.656;2024-02-21T09:32:18;9.30;99.90
24560;DHT22;12727;49.934;8.656;2024-02-21T09:34:44;9.30;99.90
24560;DHT22;12727;49.934;8.656;2024-02-21T09:37:10;9.30;99.90
24560;DHT22;12727;49.934;8.656;2024-02-21T09:39:36;9.40;99.90
24560;DHT22;12727;49.934;8.656;2024-02-21T09:42:11;9.40;99.90
24560;DHT22;12727;49.934;8.656;2024-02-21T09:44:37;9.20;99.90
24560;DHT22;12727;49.934;8.656;2024-02-21T09:47:39;9.10;99.90
24560;DHT22;12727;49.934;8.656;2024-02-21T09:50:07;9.20;99.90
24560;DHT22;12727;49.934;8.656;2024-02-21T09:52:34;9.30;99.90
24560;DHT22;12727;49.934;8.656;2024-02-21T09:55:01;9.30;99.90
24560;DHT22;12727;49.934;8.656;2024-02-21T09:57:28;9.40;99.90
24560;DHT22;12727;49.934;8.656;2024-02-21T09:59:55;9.60;99.90
24560;DHT22;12727;49.934;8.656;2024-02-21T10:02:21;9.60;99.90
24560;DHT22;12727;49.934;8.656;2024-02-21T10:04:51;9.90;99.90
24560;DHT22;12727;49.934;8.656;2024-02-21T10:07:16;10.30;99.90
24560;DHT22;12727;49.934;8.656;2024-02-21T10:09:44;10.70;99.90
24560;DHT22;12727;49.934;8.656;2024-02-21T10:12:13;10.30;99.90
24560;DHT22;12727;49.934;8.656;2024-02-21T10:14:38;10.30;99.90
24560;DHT22;12727;49.934;8.656;2024-02-21T10:17:04;10.30;99.90
24560;DHT22;12727;49.934;8.656;2024-02-21T10:19:34;10.20;99.90
24560;DHT22;12727;49.934;8.656;2024-02-21T10:22:09;10.20;99.90
24560;DHT22;12727;49.934;8.656;2024-02-21T10:24:37;10.10;99.90
24560;DHT22;12727;49.934;8.656;2024-02-21T10:27:04;10.10;99.90
24560;DHT22;12727;49.934;8.656;2024-02-21T10:29:34;10.00;99.90
24560;DHT22;12727;49.934;8.656;2024-02-21T10:32:13;9.90;99.90
24560;DHT22;12727;49.934;8.656;2024-02-21T10:34:40;9.70;99.90
24560;DHT22;12727;49.934;8.656;2024-02-21T10:37:10;9.70;99.90
24560;DHT22;12727;49.934;8.656;2024-02-21T10:39:41;9.70;99.90
24560;DHT22;12727;49.934;8.656;2024-02-21T10:42:07;9.90;99.90
24560;DHT22;12727;49.934;8.656;2024-02-21T10:44:38;10.00;99.90
24560;DHT22;12727;49.934;8.656;2024-02-21T10:47:11;10.10;99.90
24560;DHT22;12727;49.934;8.656;2024-02-21T10:49:40;10.20;99.90
24560;DHT22;12727;49.934;8.656;2024-02-21T10:54:56;10.40;99.90
24560;DHT22;12727;49.934;8.656;2024-02-21T10:57:26;10.40;99.90
24560;DHT22;12727;49.934;8.656;2024-02-21T10:59:54;10.30;99.90
24560;DHT22;12727;49.934;8.656;2024-02-21T11:02:20;10.30;99.90
24560;DHT22;12727;49.934;8.656;2024-02-21T11:04:46;10.30;99.90
24560;DHT22;12727;49.934;8.656;2024-02-21T11:07:13;10.30;99.90
24560;DHT22;12727;49.934;8.656;2024-02-21T11:09:39;10.40;99.90
24560;DHT22;12727;49.934;8.656;2024-02-21T11:12:06;10.40;99.90
24560;DHT22;12727;49.934;8.656;2024-02-21T11:14:32;10.50;99.90
24560;DHT22;12727;49.934;8.656;2024-02-21T11:16:58;10.60;99.90
24560;DHT22;12727;49.934;8.656;2024-02-21T11:19:28;10.60;99.90
24560;DHT22;12727;49.934;8.656;2024-02-21T11:21:55;10.60;99.90
24560;DHT22;12727;49.934;8.656;2024-02-21T11:24:40;10.50;99.90
24560;DHT22;12727;49.934;8.656;2024-02-21T11:27:11;10.80;99.90
24560;DHT22;12727;49.934;8.656;2024-02-21T11:29:57;10.90;99.90
24560;DHT22;12727;49.934;8.656;2024-02-21T11:32:24;11.00;99.90
24560;DHT22;12727;49.934;8.656;2024-02-21T11:35:00;11.10;99.90
24560;DHT22;12727;49.934;8.656;2024-02-21T11:37:30;11.30;99.90
24560;DHT22;12727;49.934;8.656;2024-02-21T11:39:58;11.30;99.90
24560;DHT22;12727;49.934;8.656;2024-02-21T11:42:27;11.20;99.90
24560;DHT22;12727;49.934;8.656;2024-02-21T11:44:54;11.40;99.90
24560;DHT22;12727;49.934;8.656;2024-02-21T11:47:22;11.20;99.90
24560;DHT22;12727;49.934;8.656;2024-02-21T11:49:48;11.20;99.90
24560;DHT22;12727;49.934;8.656;2024-02-21T11:52:25;11.00;99.90
24560;DHT22;12727;49.934;8.656;2024-02-21T11:54:52;10.90;99.90
24560;DHT22;12727;49.934;8.656;2024-02-21T11:57:20;10.90;99.90
24560;DHT22;12727;49.934;8.656;2024-02-21T11:59:46;10.80;99.90
24560;DHT22;12727;49.934;8.656;2024-02-21T12:02:12;10.90;99.90
24560;DHT22;12727;49.934;8.656;2024-02-21T12:04:39;11.10;99.90
24560;DHT22;12727;49.934;8.656;2024-02-21T12:07:05;11.10;99.90
24560;DHT22;12727;49.934;8.656;2024-02-21T12:09:31;11.00;99.90
24560;DHT22;12727;49.934;8.656;2024-02-21T12:12:06;10.90;99.90
24560;DHT22;12727;49.934;8.656;2024-02-21T12:14:33;10.90;99.90
24560;DHT22;12727;49.934;8.656;2024-02-21T12:17:00;10.90;99.90
24560;DHT22;12727;49.934;8.656;2024-02-21T12:19:29;10.90;99.90
24560;DHT22;12727;49.934;8.656;2024-02-21T12:21:54;11.10;99.90
24560;DHT22;12727;49.934;8.656;2024-02-21T12:24:24;11.10;99.90
24560;DHT22;12727;49.934;8.656;2024-02-21T12:26:51;11.10;99.90
24560;DHT22;12727;49.934;8.656;2024-02-21T12:29:18;11.20;99.90
24560;DHT22;12727;49.934;8.656;2024-02-21T12:31:44;11.30;99.90
24560;DHT22;12727;49.934;8.656;2024-02-21T12:34:10;11.40;99.90
24560;DHT22;12727;49.934;8.656;2024-02-21T12:36:42;11.50;99.90
24560;DHT22;12727;49.934;8.656;2024-02-21T12:39:09;11.50;99.90
24560;DHT22;12727;49.934;8.656;2024-02-21T12:41:35;11.40;99.90
24560;DHT22;12727;49.934;8.656;2024-02-21T12:44:04;11.50;99.90
24560;DHT22;12727;49.934;8.656;2024-02-21T12:46:35;11.50;99.90
24560;DHT22;12727;49.934;8.656;2024-02-21T12:49:02;11.40;99.90
24560;DHT22;12727;49.934;8.656;2024-02-21T12:51:28;11.40;99.90
24560;DHT22;12727;49.934;8.656;2024-02-21T12:53:55;11.50;99.90
24560;DHT22;12727;49.934;8.656;2024-02-21T12:56:20;11.40;99.90
24560;DHT22;12727;49.934;8.656;2024-02-21T12:58:46;11.30;99.90
24560;DHT22;12727;49.934;8.656;2024-02-21T13:01:12;11.30;99.90
24560;DHT22;12727;49.934;8.656;2024-02-21T13:03:37;11.20;99.90
24560;DHT22;12727;49.934;8.656;2024-02-21T13:06:04;11.30;99.90
24560;DHT22;12727;49.934;8.656;2024-02-21T13:08:29;11.30;99.90
24560;DHT22;12727;49.934;8.656;2024-02-21T13:10:55;11.30;99.90
24560;DHT22;12727;49.934;8.656;2024-02-21T13:13:22;11.20;99.90
24560;DHT22;12727;49.934;8.656;2024-02-21T13:15:48;11.10;99.90
24560;DHT22;12727;49.934;8.656;2024-02-21T13:18:13;11.00;99.90
24560;DHT22;12727;49.934;8.656;2024-02-21T13:20:39;10.90;99.90
24560;DHT22;12727;49.934;8.656;2024-02-21T13:23:04;10.90;99.90
24560;DHT22;12727;49.934;8.656;2024-02-21T13:25:30;11.00;99.90
24560;DHT22;12727;49.934;8.656;2024-02-21T13:27:55;11.00;99.90
24560;DHT22;12727;49.934;8.656;2024-02-21T13:30:22;11.00;99.90
24560;DHT22;12727;49.934;8.656;2024-02-21T13:32:47;11.00;99.90
24560;DHT22;12727;49.934;8.656;2024-02-21T13:35:13;10.90;99.90
24560;DHT22;12727;49.934;8.656;2024-02-21T13:37:40;10.80;99.90
24560;DHT22;12727;49.934;8.656;2024-02-21T13:40:06;10.80;99.90
24560;DHT22;12727;49.934;8.656;2024-02-21T13:42:34;10.80;99.90
24560;DHT22;12727;49.934;8.656;2024-02-21T13:45:00;10.80;99.90
24560;DHT22;12727;49.934;8.656;2024-02-21T13:47:27;10.90;99.90
24560;DHT22;12727;49.934;8.656;2024-02-21T13:49:52;10.90;99.90
24560;DHT22;12727;49.934;8.656;2024-02-21T13:52:18;11.00;99.90
24560;DHT22;12727;49.934;8.656;2024-02-21T13:54:46;11.10;99.90
24560;DHT22;12727;49.934;8.656;2024-02-21T13:57:12;11.30;99.90
24560;DHT22;12727;49.934;8.656;2024-02-21T13:59:37;11.40;99.90
24560;DHT22;12727;49.934;8.656;2024-02-21T14:02:05;11.50;99.90
24560;DHT22;12727;49.934;8.656;2024-02-21T14:04:32;11.50;99.90
24560;DHT22;12727;49.934;8.656;2024-02-21T14:06:58;11.50;99.90
24560;DHT22;12727;49.934;8.656;2024-02-21T14:09:23;11.50;99.90
24560;DHT22;12727;49.934;8.656;2024-02-21T14:11:49;11.60;99.90
24560;DHT22;12727;49.934;8.656;2024-02-21T14:14:14;11.60;99.90
24560;DHT22;12727;49.934;8.656;2024-02-21T14:16:40;11.60;99.90
24560;DHT22;12727;49.934;8.656;2024-02-21T14:19:06;11.60;99.90
24560;DHT22;12727;49.934;8.656;2024-02-21T14:21:34;11.50;99.90
24560;DHT22;12727;49.934;8.656;2024-02-21T14:24:03;11.50;99.90
24560;DHT22;12727;49.934;8.656;2024-02-21T14:26:28;11.50;99.90
24560;DHT22;12727;49.934;8.656;2024-02-21T14:28:56;11.50;99.90
24560;DHT22;12727;49.934;8.656;2024-02-21T14:31:22;11.50;99.90
24560;DHT22;12727;49.934;8.656;2024-02-21T14:33:48;11.60;99.90
24560;DHT22;12727;49.934;8.656;2024-02-21T14:36:13;11.60;99.90
24560;DHT22;12727;49.934;8.656;2024-02-21T14:38:41;11.60;99.90
24560;DHT22;12727;49.934;8.656;2024-02-21T14:41:07;11.60;99.90
24560;DHT22;12727;49.934;8.656;2024-02-21T14:43:32;11.50;99.90
24560;DHT22;12727;49.934;8.656;2024-02-21T14:46:00;11.50;99.90
24560;DHT22;12727;49.934;8.656;2024-02-21T14:48:25;11.50;99.90
24560;DHT22;12727;49.934;8.656;2024-02-21T14:50:54;11.40;99.90
24560;DHT22;12727;49.934;8.656;2024-02-21T14:53:19;11.40;99.90
24560;DHT22;12727;49.934;8.656;2024-02-21T14:55:45;11.40;99.90
24560;DHT22;12727;49.934;8.656;2024-02-21T14:58:10;11.30;99.90
24560;DHT22;12727;49.934;8.656;2024-02-21T15:00:36;11.40;99.90
24560;DHT22;12727;49.934;8.656;2024-02-21T15:03:02;11.20;99.90
24560;DHT22;12727;49.934;8.656;2024-02-21T15:05:28;11.20;99.90
24560;DHT22;12727;49.934;8.656;2024-02-21T15:07:56;11.20;99.90
24560;DHT22;12727;49.934;8.656;2024-02-21T15:10:24;11.20;99.90
24560;DHT22;12727;49.934;8.656;2024-02-21T15:12:50;11.10;99.90
24560;DHT22;12727;49.934;8.656;2024-02-21T15:15:15;11.10;99.90
24560;DHT22;12727;49.934;8.656;2024-02-21T15:17:42;11.10;99.90
24560;DHT22;12727;49.934;8.656;2024-02-21T15:20:08;11.00;99.90
24560;DHT22;12727;49.934;8.656;2024-02-21T15:22:34;10.90;99.90
24560;DHT22;12727;49.934;8.656;2024-02-21T15:25:01;10.90;99.90
24560;DHT22;12727;49.934;8.656;2024-02-21T15:27:27;10.90;99.90
24560;DHT22;12727;49.934;8.656;2024-02-21T15:29:54;10.90;99.90
24560;DHT22;12727;49.934;8.656;2024-02-21T15:32:20;10.80;99.90
24560;DHT22;12727;49.934;8.656;2024-02-21T15:34:46;10.90;99.90
24560;DHT22;12727;49.934;8.656;2024-02-21T15:37:12;10.90;99.90
24560;DHT22;12727;49.934;8.656;2024-02-21T15:39:41;10.80;99.90
24560;DHT22;12727;49.934;8.656;2024-02-21T15:42:06;10.80;99.90